메인 페이지
METAR-TAF:

METAR-TAF

공항 :

야운데, 카메룬

위도: 03-50N, 경도: 011-31E, 고도: 751m

현재 날씨관측

예보는 1 시간 24분 전, 09:00시(UTC)에 발표되었습니다.
5kt서남서풍과 북북서풍을 오가는
온도 27°C
습도 79%
기압 1016 hPa
시정 10km 이상
고도 1300ft 상공 구름 많음

METAR: FKYS 300900Z 28005KT 240V330 9999 BKN013 27/23 Q1016 BECMG BKN016

시각: 11:24 (10:24 UTC)

예보

예보는 11 시간 24분 전, 23:00시(UTC)에 발표되었습니다.
예보 대상 시간: 30일 00시부터 30일 24시까지 (UTC)
여러 방향의 바람 3kt
시정: 8000m
고도 600ft 상공 구름 많음
일시적
30일 03시부터 30일 07시까지 (UTC)
시정: 4000m
박무
전환 중
30일 07시부터 30일 09시까지 (UTC)
고도 1600ft 상공 구름 많음
일시적
30일 15시부터 30일 20시까지 (UTC)
고도 1300ft 상공 구름 많음
고도 2000ft 상공 구름 조금, 적란운.
뇌우
전환 중
30일 22시부터 30일 24시까지 (UTC)
고도 600ft 상공 구름 많음

TAF: FKYS 292300Z 3000/3024 VRB03KT 8000 BKN006 TEMPO 3003/3007 4000 BR BECMG 3007/3009 BKN016 TEMPO 3015/3020 TS BKN013 FEW020CB BECMG 3022/3024 BKN006

4,000개 이상의 공항 관측 자료 및 예보 (METAR 및 TAF 보고).

지도상에서 검색 가능한 기상관측소가 노란 점과 빨간 점으로 표시되어 있습니다.

기상관측소 명을 보려면 표시 위로 마우스를 이동하세요.

날씨 관측과 예보를 보려면 클릭하세요.

지도 변경 : 확대하려면 엑스 표시가 있는 녹색 버튼, 축소하려면 빼기 표시가 있는 녹색 버튼, 다음 페이지의 지도를 보려면 녹색 화살표를 클릭하세요.


METAR-TAF: